createdAt,value
2018-10-06T00:00:24.320Z,100985.79
2018-10-06T00:01:28.544Z,100981.78
2018-10-06T00:02:32.530Z,100984.45
2018-10-06T00:03:36.557Z,100981.45
2018-10-06T00:04:40.696Z,100984.12
2018-10-06T00:05:44.795Z,100978.78
2018-10-06T00:06:48.976Z,100983.28
2018-10-06T00:07:53.241Z,100984.12
2018-10-06T00:08:57.387Z,100982.08
2018-10-06T00:10:01.487Z,100981.75
2018-10-06T00:11:05.562Z,100976.41
2018-10-06T00:12:09.685Z,100980.91
2018-10-06T00:13:13.746Z,100976.05
2018-10-06T00:14:17.899Z,100978.37
2018-10-06T00:15:22.216Z,100981.89
2018-10-06T00:16:26.324Z,100981.05
2018-10-06T00:17:30.364Z,100981.20
2018-10-06T00:18:34.563Z,100976.34
2018-10-06T00:19:38.623Z,100976.84
2018-10-06T00:20:42.672Z,100981.34
2018-10-06T00:21:46.758Z,100971.66
2018-10-06T00:22:50.952Z,100984.18
2018-10-06T00:23:55.029Z,100976.29
2018-10-06T00:24:59.216Z,100977.62
2018-10-06T00:26:03.283Z,100978.12
2018-10-06T00:27:07.468Z,100978.61
2018-10-06T00:28:11.568Z,100979.62
2018-10-06T00:29:15.701Z,100978.77
2018-10-06T00:30:19.697Z,100976.59
2018-10-06T00:31:23.744Z,100974.89
2018-10-06T00:32:28.128Z,100969.23
2018-10-06T00:33:32.242Z,100979.56
2018-10-06T00:34:36.369Z,100975.55
2018-10-06T00:35:40.688Z,100974.70
2018-10-06T00:36:44.773Z,100974.34
2018-10-06T00:37:48.820Z,100982.36
2018-10-06T00:38:52.898Z,100973.53
2018-10-06T00:39:57.352Z,100969.16
2018-10-06T00:41:01.433Z,100971.48
2018-10-06T00:42:05.498Z,100968.48
2018-10-06T00:43:09.560Z,100969.45
2018-10-06T00:44:13.638Z,100972.13
2018-10-06T00:45:17.697Z,100965.09
2018-10-06T00:46:21.724Z,100971.77
2018-10-06T00:47:25.973Z,100963.56
2018-10-06T00:48:30.052Z,100966.23
2018-10-06T00:49:34.152Z,100968.55
2018-10-06T00:50:38.217Z,100962.03
2018-10-06T00:51:42.486Z,100960.34
2018-10-06T00:52:47.024Z,100959.98
2018-10-06T00:53:51.156Z,100966.66
2018-10-06T00:54:55.262Z,100960.64
2018-10-06T00:55:59.371Z,100960.64
2018-10-06T00:57:03.538Z,100954.61
2018-10-06T00:58:07.612Z,100953.27
2018-10-06T00:59:11.821Z,100958.95
2018-10-06T01:00:15.922Z,100953.41
2018-10-06T01:01:20.068Z,100952.56
2018-10-06T01:02:24.131Z,100957.05
2018-10-06T01:03:28.146Z,100950.38
2018-10-06T01:04:32.310Z,100952.37
2018-10-06T01:05:36.357Z,100959.53
2018-10-06T01:06:40.439Z,100955.17
2018-10-06T01:07:44.495Z,100959.17
2018-10-06T01:08:48.696Z,100957.52
2018-10-06T01:09:52.902Z,100955.82
2018-10-06T01:10:57.029Z,100954.61
2018-10-06T01:12:01.232Z,100954.61
2018-10-06T01:13:05.331Z,100948.10
2018-10-06T01:14:09.637Z,100948.59
2018-10-06T01:15:13.755Z,100943.41
2018-10-06T01:16:17.900Z,100946.08
2018-10-06T01:17:21.951Z,100943.41
2018-10-06T01:18:26.038Z,100933.02
2018-10-06T01:19:30.143Z,100935.17
2018-10-06T01:20:34.347Z,100929.02
2018-10-06T01:21:38.437Z,100931.69
2018-10-06T01:22:43.282Z,100926.83
2018-10-06T01:23:47.417Z,100923.44
2018-10-06T01:24:51.475Z,100921.26
2018-10-06T01:25:55.650Z,100923.09
2018-10-06T01:26:59.741Z,100923.09
2018-10-06T01:28:04.578Z,100922.23
2018-10-06T01:29:08.637Z,100921.39
2018-10-06T01:30:12.720Z,100921.39
2018-10-06T01:31:16.922Z,100918.85
2018-10-06T01:32:21.027Z,100917.52
2018-10-06T01:33:25.677Z,100915.36
2018-10-06T01:34:29.856Z,100912.34
2018-10-06T01:35:34.001Z,100911.48
2018-10-06T01:36:38.117Z,100913.31
2018-10-06T01:37:42.237Z,100911.13
2018-10-06T01:38:46.414Z,100906.28
2018-10-06T01:39:50.532Z,100907.13
2018-10-06T01:40:54.813Z,100904.13
2018-10-06T01:42:00.511Z,100904.13
2018-10-06T01:43:04.937Z,100908.14
2018-10-06T01:44:09.034Z,100901.10
2018-10-06T01:45:13.447Z,100899.77
2018-10-06T01:46:17.533Z,100896.73
2018-10-06T01:47:21.624Z,100895.08
2018-10-06T01:48:25.793Z,100896.05
2018-10-06T01:49:30.009Z,100897.75
2018-10-06T01:50:34.153Z,100894.72
2018-10-06T01:51:38.337Z,100895.20
2018-10-06T01:52:42.473Z,100894.36
2018-10-06T01:53:46.606Z,100889.19
2018-10-06T01:54:50.804Z,100890.52
2018-10-06T01:55:54.869Z,100891.98
2018-10-06T01:56:59.030Z,100887.98
2018-10-06T01:58:03.128Z,100888.95
2018-10-06T01:59:07.471Z,100886.28
2018-10-06T02:00:11.665Z,100887.30
2018-10-06T02:01:15.798Z,100885.95
2018-10-06T02:02:19.916Z,100889.12
2018-10-06T02:03:24.074Z,100888.27
2018-10-06T02:04:29.130Z,100883.42
2018-10-06T02:05:33.192Z,100888.27
2018-10-06T02:06:37.522Z,100874.56
2018-10-06T02:07:41.572Z,100883.42
2018-10-06T02:08:45.668Z,100879.41
2018-10-06T02:09:49.792Z,100880.39
2018-10-06T02:10:53.873Z,100890.09
2018-10-06T02:11:58.043Z,100880.06
2018-10-06T02:13:02.194Z,100886.25
2018-10-06T02:14:06.372Z,100886.58
2018-10-06T02:15:10.522Z,100883.71
2018-10-06T02:16:14.618Z,100879.22
2018-10-06T02:17:18.747Z,100878.86
2018-10-06T02:18:22.892Z,100881.05
2018-10-06T02:19:27.016Z,100878.86
2018-10-06T02:20:31.155Z,100878.53
2018-10-06T02:21:35.213Z,100873.20
2018-10-06T02:22:39.370Z,100873.20
2018-10-06T02:23:43.627Z,100874.17
2018-10-06T02:24:54.213Z,100870.17
2018-10-06T02:25:58.365Z,100876.48
2018-10-06T02:27:02.454Z,100878.80
2018-10-06T02:28:06.885Z,100870.30
2018-10-06T02:29:11.091Z,100881.63
2018-10-06T02:30:15.430Z,100869.61
2018-10-06T02:31:19.552Z,100874.11
2018-10-06T02:32:23.677Z,100871.93
2018-10-06T02:33:27.841Z,100869.75
2018-10-06T02:34:32.037Z,100873.75
2018-10-06T02:35:36.180Z,100873.42
2018-10-06T02:36:40.308Z,100869.06
2018-10-06T02:37:44.380Z,100868.22
2018-10-06T02:38:48.549Z,100868.70
2018-10-06T02:39:52.991Z,100862.52
2018-10-06T02:40:57.500Z,100857.17
2018-10-06T02:42:01.924Z,100867.05
2018-10-06T02:43:06.071Z,100859.52
2018-10-06T02:44:10.117Z,100860.02
2018-10-06T02:45:14.285Z,100860.98
2018-10-06T02:46:18.502Z,100852.98
2018-10-06T02:47:22.786Z,100855.16
2018-10-06T02:48:26.826Z,100850.31
2018-10-06T02:49:30.957Z,100853.98
2018-10-06T02:50:34.990Z,100854.80
2018-10-06T02:51:39.238Z,100849.14
2018-10-06T02:52:43.316Z,100846.47
2018-10-06T02:53:48.013Z,100850.96
2018-10-06T02:54:52.071Z,100848.30
2018-10-06T02:55:56.197Z,100847.94
2018-10-06T02:57:00.301Z,100847.94
2018-10-06T02:58:04.445Z,100845.27
2018-10-06T02:59:08.609Z,100844.42
2018-10-06T03:00:12.823Z,100843.08
2018-10-06T03:01:16.932Z,100841.91
2018-10-06T03:02:21.173Z,100844.58
2018-10-06T03:03:25.317Z,100843.73
2018-10-06T03:04:29.504Z,100843.05
2018-10-06T03:05:33.707Z,100848.39
2018-10-06T03:06:37.746Z,100849.20
2018-10-06T03:07:42.167Z,100845.72
2018-10-06T03:08:46.285Z,100841.72
2018-10-06T03:09:50.420Z,100848.88
2018-10-06T03:10:54.536Z,100843.54
2018-10-06T03:11:58.962Z,100844.52
2018-10-06T03:13:03.054Z,100837.48
2018-10-06T03:14:07.340Z,100837.97
2018-10-06T03:15:11.798Z,100836.15
2018-10-06T03:16:15.966Z,100837.48
2018-10-06T03:17:20.085Z,100838.81
2018-10-06T03:18:25.133Z,100843.54
2018-10-06T03:19:29.409Z,100833.97
2018-10-06T03:20:33.610Z,100835.83
2018-10-06T03:21:37.727Z,100831.17
2018-10-06T03:22:42.690Z,100832.63
2018-10-06T03:23:47.202Z,100829.64
2018-10-06T03:24:51.289Z,100828.80
2018-10-06T03:25:55.376Z,100823.45
2018-10-06T03:26:59.480Z,100824.44
2018-10-06T03:28:03.614Z,100823.09
2018-10-06T03:29:07.801Z,100816.10
2018-10-06T03:30:11.945Z,100814.41
2018-10-06T03:31:16.241Z,100819.26
2018-10-06T03:32:20.509Z,100821.92
2018-10-06T03:33:24.601Z,100818.41
2018-10-06T03:34:28.810Z,100812.72
2018-10-06T03:35:32.997Z,100815.74
2018-10-06T03:36:37.090Z,100812.72
2018-10-06T03:37:41.209Z,100812.36
2018-10-06T03:38:45.289Z,100811.02
2018-10-06T03:39:49.444Z,100814.22
2018-10-06T03:40:53.633Z,100807.67
2018-10-06T03:41:58.006Z,100807.19
2018-10-06T03:43:02.201Z,100805.84
2018-10-06T03:44:06.313Z,100805.00
2018-10-06T03:45:10.453Z,100805.16
2018-10-06T03:46:14.671Z,100808.32
2018-10-06T03:47:18.862Z,100798.27
2018-10-06T03:48:22.939Z,100798.14
2018-10-06T03:49:27.087Z,100802.63
2018-10-06T03:50:31.227Z,100804.81
2018-10-06T03:51:35.478Z,100796.44
2018-10-06T03:52:39.712Z,100798.14
2018-10-06T03:53:43.946Z,100793.64
2018-10-06T03:54:48.143Z,100791.95
2018-10-06T03:55:52.344Z,100787.46
2018-10-06T03:56:56.672Z,100786.61
2018-10-06T03:58:00.860Z,100784.44
2018-10-06T03:59:04.964Z,100786.13
2018-10-06T04:00:09.461Z,100786.61
2018-10-06T04:01:13.634Z,100782.13
2018-10-06T04:02:17.745Z,100786.61
2018-10-06T04:03:22.061Z,100784.92
2018-10-06T04:04:26.199Z,100784.59
2018-10-06T04:05:30.455Z,100786.25
2018-10-06T04:06:34.594Z,100781.41
2018-10-06T04:07:38.712Z,100780.23
2018-10-06T04:08:42.795Z,100781.21
2018-10-06T04:09:47.033Z,100777.56
2018-10-06T04:10:51.173Z,100778.91
2018-10-06T04:11:55.322Z,100773.70
2018-10-06T04:12:59.501Z,100774.22
2018-10-06T04:14:03.695Z,100775.03
2018-10-06T04:15:07.907Z,100772.88
2018-10-06T04:16:12.119Z,100773.38
2018-10-06T04:17:16.396Z,100771.19
2018-10-06T04:18:20.477Z,100771.19
2018-10-06T04:19:24.591Z,100770.22
2018-10-06T04:20:29.490Z,100769.50
2018-10-06T04:21:46.015Z,100767.67
2018-10-06T04:22:50.130Z,100769.02
2018-10-06T04:23:54.261Z,100767.80
2018-10-06T04:24:58.474Z,100766.47
2018-10-06T04:26:02.915Z,100766.15
2018-10-06T04:27:07.026Z,100770.15
2018-10-06T04:28:11.203Z,100767.48
2018-10-06T04:29:15.856Z,100758.27
2018-10-06T04:30:20.213Z,100759.12
2018-10-06T04:31:24.268Z,100756.61
2018-10-06T04:32:28.410Z,100758.77
2018-10-06T04:33:32.560Z,100760.45
2018-10-06T04:34:36.759Z,100756.45
2018-10-06T04:35:40.864Z,100759.12
2018-10-06T04:36:45.058Z,100753.95
2018-10-06T04:37:49.124Z,100752.09
2018-10-06T04:38:53.296Z,100750.76
2018-10-06T04:39:57.333Z,100745.94
2018-10-06T04:41:01.443Z,100751.28
2018-10-06T04:42:05.628Z,100746.92
2018-10-06T04:43:09.721Z,100744.25
2018-10-06T04:44:13.831Z,100742.75
2018-10-06T04:45:17.935Z,100741.42
2018-10-06T04:46:22.055Z,100736.25
2018-10-06T04:47:26.209Z,100743.77
2018-10-06T04:48:30.434Z,100735.05
2018-10-06T04:49:34.690Z,100742.56
2018-10-06T04:50:38.693Z,100739.41
2018-10-06T04:51:42.774Z,100738.20
2018-10-06T04:52:46.908Z,100740.05
2018-10-06T04:53:50.984Z,100739.05
2018-10-06T04:54:55.137Z,100735.53
2018-10-06T04:55:59.348Z,100732.54
2018-10-06T04:57:03.433Z,100735.20
2018-10-06T04:58:07.582Z,100731.69
2018-10-06T04:59:11.685Z,100731.34
2018-10-06T05:00:15.829Z,100731.69
2018-10-06T05:01:19.920Z,100725.67
2018-10-06T05:02:24.006Z,100728.18
2018-10-06T05:03:28.343Z,100730.00
2018-10-06T05:04:32.492Z,100722.65
2018-10-06T05:05:36.731Z,100729.67
2018-10-06T05:06:41.032Z,100723.98
2018-10-06T05:07:45.160Z,100726.66
2018-10-06T05:08:49.280Z,100719.14
2018-10-06T05:09:53.808Z,100720.83
2018-10-06T05:10:58.051Z,100723.33
2018-10-06T05:12:02.182Z,100721.31
2018-10-06T05:13:07.039Z,100717.31
2018-10-06T05:14:11.099Z,100716.34
2018-10-06T05:15:15.140Z,100720.47
2018-10-06T05:16:19.324Z,100709.31
2018-10-06T05:17:23.373Z,100715.13
2018-10-06T05:18:27.541Z,100714.64
2018-10-06T05:19:31.698Z,100717.31
2018-10-06T05:20:35.832Z,100720.47
2018-10-06T05:21:39.928Z,100718.29
2018-10-06T05:22:44.017Z,100723.62
2018-10-06T05:23:48.021Z,100712.59
2018-10-06T05:24:52.141Z,100715.27
2018-10-06T05:25:56.188Z,100717.61
2018-10-06T05:27:00.307Z,100712.27
2018-10-06T05:28:04.385Z,100713.61
2018-10-06T05:29:08.399Z,100707.91
2018-10-06T05:30:12.502Z,100713.25
2018-10-06T05:31:16.653Z,100708.77
2018-10-06T05:32:20.880Z,100714.59
2018-10-06T05:33:24.970Z,100710.23
2018-10-06T05:34:29.077Z,100711.56
2018-10-06T05:35:33.186Z,100709.73
2018-10-06T05:36:37.394Z,100706.75
2018-10-06T05:37:41.538Z,100705.41
2018-10-06T05:38:45.688Z,100703.72
2018-10-06T05:39:49.877Z,100709.91
2018-10-06T05:40:54.349Z,100706.52
2018-10-06T05:41:58.449Z,100710.88
2018-10-06T05:43:02.908Z,100713.06
2018-10-06T05:44:07.097Z,100714.87
2018-10-06T05:45:11.277Z,100713.70
2018-10-06T05:46:15.459Z,100711.05
2018-10-06T05:47:19.569Z,100709.34
2018-10-06T05:48:23.790Z,100712.86
2018-10-06T05:49:28.040Z,100714.20
2018-10-06T05:50:32.263Z,100718.20
2018-10-06T05:51:36.408Z,100711.17
2018-10-06T05:52:40.493Z,100713.70
2018-10-06T05:53:45.132Z,100713.35
2018-10-06T05:54:49.272Z,100709.84
2018-10-06T05:55:53.637Z,100716.50
2018-10-06T05:56:57.796Z,100712.02
2018-10-06T05:58:02.093Z,100709.84
2018-10-06T05:59:06.481Z,100717.84
2018-10-06T06:00:10.561Z,100709.48
2018-10-06T06:01:14.651Z,100717.48
2018-10-06T06:02:18.737Z,100711.66
2018-10-06T06:03:22.922Z,100713.97
2018-10-06T06:04:27.090Z,100715.17
2018-10-06T06:05:31.237Z,100712.50
2018-10-06T06:06:35.466Z,100717.84
2018-10-06T06:07:39.556Z,100719.17
2018-10-06T06:08:43.852Z,100720.51
2018-10-06T06:09:48.003Z,100721.84
2018-10-06T06:10:52.108Z,100727.86
2018-10-06T06:11:56.248Z,100729.19
2018-10-06T06:13:00.376Z,100725.91
2018-10-06T06:14:04.467Z,100721.55
2018-10-06T06:15:09.010Z,100724.57
2018-10-06T06:16:13.182Z,100720.08
2018-10-06T06:17:17.269Z,100725.25
2018-10-06T06:18:21.388Z,100724.77
2018-10-06T06:19:33.270Z,100725.61
2018-10-06T06:20:39.069Z,100724.61
2018-10-06T06:21:44.373Z,100729.45
2018-10-06T06:22:48.592Z,100724.12
2018-10-06T06:23:52.904Z,100727.63
2018-10-06T06:24:57.211Z,100727.98
2018-10-06T06:26:01.481Z,100719.14
2018-10-06T06:27:05.584Z,100735.34
2018-10-06T06:28:09.944Z,100732.67
2018-10-06T06:29:14.165Z,100734.00
2018-10-06T06:30:18.253Z,100729.52
2018-10-06T06:31:22.533Z,100729.03
2018-10-06T06:32:26.948Z,100725.52
2018-10-06T06:33:31.088Z,100728.05
2018-10-06T06:34:35.222Z,100723.20
2018-10-06T06:35:39.440Z,100725.70
2018-10-06T06:36:43.706Z,100725.38
2018-10-06T06:37:47.828Z,100721.70
2018-10-06T06:38:52.238Z,100725.58
2018-10-06T06:39:56.393Z,100717.41
2018-10-06T06:41:01.086Z,100721.41
2018-10-06T06:42:05.269Z,100719.09
2018-10-06T06:43:09.765Z,100715.45
2018-10-06T06:44:14.056Z,100722.80
2018-10-06T06:45:18.170Z,100713.47
2018-10-06T06:46:22.293Z,100716.48
2018-10-06T06:47:26.631Z,100715.84
2018-10-06T06:48:30.828Z,100710.50
2018-10-06T06:49:35.176Z,100715.22
2018-10-06T06:50:39.567Z,100708.87
2018-10-06T06:51:43.742Z,100713.58
2018-10-06T06:52:47.897Z,100714.43
2018-10-06T06:53:51.974Z,100711.59
2018-10-06T06:54:56.136Z,100708.80
2018-10-06T06:56:00.365Z,100705.11
2018-10-06T06:57:04.493Z,100702.31
2018-10-06T06:58:08.627Z,100705.83
2018-10-06T06:59:12.762Z,100704.33
2018-10-06T07:00:16.981Z,100705.03
2018-10-06T07:01:21.137Z,100700.02
2018-10-06T07:02:25.372Z,100694.55
2018-10-06T07:03:29.728Z,100693.89
2018-10-06T07:04:34.143Z,100694.73
2018-10-06T07:05:38.364Z,100692.75
2018-10-06T07:06:42.525Z,100692.13
2018-10-06T07:07:47.553Z,100689.81
2018-10-06T07:08:51.740Z,100686.48
2018-10-06T07:09:56.052Z,100688.98
2018-10-06T07:11:00.192Z,100686.18
2018-10-06T07:12:04.369Z,100691.39
2018-10-06T07:13:09.033Z,100689.88
2018-10-06T07:14:13.228Z,100687.57
2018-10-06T07:15:17.298Z,100687.27
2018-10-06T07:16:21.753Z,100687.27
2018-10-06T07:17:25.845Z,100685.27
2018-10-06T07:18:29.948Z,100689.47
2018-10-06T07:19:34.545Z,100686.80
2018-10-06T07:20:38.625Z,100680.34
2018-10-06T07:21:42.975Z,100676.66
2018-10-06T07:22:47.069Z,100684.04
2018-10-06T07:23:51.159Z,100683.88
2018-10-06T07:24:55.348Z,100688.23
2018-10-06T07:25:59.492Z,100692.77
2018-10-06T07:27:03.747Z,100689.13
2018-10-06T07:28:08.012Z,100684.10
2018-10-06T07:29:12.179Z,100682.14
2018-10-06T07:30:16.319Z,100684.16
2018-10-06T07:31:21.066Z,100685.35
2018-10-06T07:32:25.166Z,100679.52
2018-10-06T07:33:29.294Z,100681.20
2018-10-06T07:34:33.557Z,100673.06
2018-10-06T07:35:37.603Z,100674.58
2018-10-06T07:36:41.895Z,100677.60
2018-10-06T07:37:46.010Z,100676.94
2018-10-06T07:38:50.091Z,100675.61
2018-10-06T07:39:54.142Z,100676.28
2018-10-06T07:40:58.219Z,100680.15
2018-10-06T07:42:02.327Z,100675.97
2018-10-06T07:43:06.552Z,100679.00
2018-10-06T07:44:11.096Z,100680.02
2018-10-06T07:45:15.668Z,100679.04
2018-10-06T07:46:19.775Z,100681.05
2018-10-06T07:47:23.933Z,100678.23
2018-10-06T07:48:28.038Z,100679.09
2018-10-06T07:49:32.171Z,100679.76
2018-10-06T07:50:36.864Z,100675.09
2018-10-06T07:51:41.116Z,100674.45
2018-10-06T07:52:45.305Z,100679.14
2018-10-06T07:53:49.478Z,100677.66
2018-10-06T07:54:53.674Z,100669.97
2018-10-06T07:55:57.977Z,100669.33
2018-10-06T07:57:02.182Z,100673.17
2018-10-06T07:58:06.655Z,100676.87
2018-10-06T07:59:11.109Z,100674.55
2018-10-06T08:00:15.229Z,100670.54
2018-10-06T08:01:19.498Z,100670.23
2018-10-06T08:02:23.692Z,100672.27
2018-10-06T08:03:28.210Z,100676.59
2018-10-06T08:04:32.494Z,100669.28
2018-10-06T08:05:36.669Z,100669.95
2018-10-06T08:06:40.852Z,100670.13
2018-10-06T08:07:45.101Z,100670.83
2018-10-06T08:08:49.574Z,100665.80
2018-10-06T08:09:53.826Z,100670.02
2018-10-06T08:10:57.977Z,100668.02
2018-10-06T08:12:02.247Z,100664.36
2018-10-06T08:13:07.087Z,100659.69
2018-10-06T08:14:12.410Z,100658.70
2018-10-06T08:15:16.654Z,100656.34
2018-10-06T08:16:20.704Z,100654.37
2018-10-06T08:17:24.989Z,100659.41
2018-10-06T08:18:29.181Z,100656.06
2018-10-06T08:19:33.324Z,100647.41
2018-10-06T08:20:38.144Z,100647.72
2018-10-06T08:21:42.305Z,100646.73
2018-10-06T08:22:46.385Z,100650.43
2018-10-06T08:23:50.536Z,100654.30
2018-10-06T08:24:54.774Z,100654.97
2018-10-06T08:25:59.495Z,100648.62
2018-10-06T08:27:03.605Z,100648.80
2018-10-06T08:28:08.004Z,100648.13
2018-10-06T08:29:12.543Z,100652.00
2018-10-06T08:30:16.722Z,100649.50
2018-10-06T08:31:23.345Z,100654.53
2018-10-06T08:32:27.907Z,100650.87
2018-10-06T08:33:32.253Z,100651.53
2018-10-06T08:34:36.448Z,100651.22
2018-10-06T08:35:40.572Z,100658.92
2018-10-06T08:36:44.658Z,100658.78
2018-10-06T08:37:48.799Z,100655.47
2018-10-06T08:38:52.958Z,100656.48
2018-10-06T08:39:57.239Z,100660.70
2018-10-06T08:41:01.321Z,100656.50
2018-10-06T08:42:05.434Z,100656.02
2018-10-06T08:43:09.965Z,100652.34
2018-10-06T08:44:14.330Z,100656.03
2018-10-06T08:45:18.600Z,100652.87
2018-10-06T08:46:22.678Z,100651.84
2018-10-06T08:47:27.176Z,100649.34
2018-10-06T08:48:31.411Z,100641.52
2018-10-06T08:49:35.586Z,100632.31
2018-10-06T08:50:40.652Z,100634.31
2018-10-06T08:51:44.760Z,100631.00
2018-10-06T08:52:48.893Z,100630.82
2018-10-06T08:53:53.131Z,100625.81
2018-10-06T08:54:57.542Z,100628.84
2018-10-06T08:56:01.780Z,100626.67
2018-10-06T08:57:06.178Z,100622.98
2018-10-06T08:58:10.295Z,100625.33
2018-10-06T08:59:14.308Z,100636.73
2018-10-06T09:00:18.440Z,100624.50
2018-10-06T09:01:23.059Z,100623.19
2018-10-06T09:02:27.264Z,100620.17
2018-10-06T09:03:31.463Z,100620.03
2018-10-06T09:04:35.534Z,100626.70
2018-10-06T09:05:39.576Z,100626.06
2018-10-06T09:06:43.789Z,100623.90
2018-10-06T09:07:47.902Z,100619.55
2018-10-06T09:08:52.331Z,100619.36
2018-10-06T09:09:56.387Z,100618.72
2018-10-06T09:11:00.500Z,100623.40
2018-10-06T09:12:04.568Z,100622.72
2018-10-06T09:13:08.604Z,100618.05
2018-10-06T09:14:13.033Z,100616.87
2018-10-06T09:15:17.099Z,100624.09
2018-10-06T09:16:21.202Z,100620.06
2018-10-06T09:17:25.320Z,100622.56
2018-10-06T09:18:29.451Z,100620.08
2018-10-06T09:19:33.625Z,100622.08
2018-10-06T09:20:37.756Z,100622.42
2018-10-06T09:21:41.889Z,100626.11
2018-10-06T09:22:45.963Z,100619.08
2018-10-06T09:23:50.058Z,100619.42
2018-10-06T09:24:54.470Z,100617.41
2018-10-06T09:25:59.009Z,100612.70
2018-10-06T09:27:03.130Z,100614.23
2018-10-06T09:28:07.704Z,100612.24
2018-10-06T09:29:11.748Z,100612.09
2018-10-06T09:30:15.880Z,100613.59
2018-10-06T09:31:19.941Z,100609.39
2018-10-06T09:32:24.045Z,100610.58
2018-10-06T09:33:28.210Z,100615.75
2018-10-06T09:34:32.243Z,100610.39
2018-10-06T09:35:36.518Z,100606.71
2018-10-06T09:36:40.734Z,100604.69
2018-10-06T09:37:44.793Z,100610.73
2018-10-06T09:38:48.957Z,100610.40
2018-10-06T09:39:53.126Z,100610.22
2018-10-06T09:40:57.512Z,100611.75
2018-10-06T09:42:01.686Z,100606.05
2018-10-06T09:43:05.665Z,100607.55
2018-10-06T09:44:09.843Z,100605.86
2018-10-06T09:45:14.031Z,100601.16
2018-10-06T09:46:18.205Z,100602.50
2018-10-06T09:47:22.362Z,100595.14
2018-10-06T09:48:26.384Z,100598.48
2018-10-06T09:49:30.542Z,100594.30
2018-10-06T09:50:34.803Z,100594.11
2018-10-06T09:51:38.935Z,100593.95
2018-10-06T09:52:43.114Z,100591.92
2018-10-06T09:53:47.294Z,100592.58
2018-10-06T09:54:51.402Z,100593.08
2018-10-06T09:55:55.494Z,100592.08
2018-10-06T09:56:59.628Z,100590.89
2018-10-06T09:58:03.772Z,100594.27
2018-10-06T09:59:08.004Z,100593.92
2018-10-06T10:00:12.100Z,100601.93
2018-10-06T10:01:21.590Z,100604.95
2018-10-06T10:02:30.888Z,100596.91
2018-10-06T10:03:40.316Z,100594.56
2018-10-06T10:04:44.424Z,100595.87
2018-10-06T10:05:50.684Z,100593.53
2018-10-06T10:06:54.952Z,100594.52
2018-10-06T10:07:59.072Z,100592.34
2018-10-06T10:09:03.122Z,100585.13
2018-10-06T10:10:07.732Z,100586.31
2018-10-06T10:11:11.863Z,100585.28
2018-10-06T10:12:15.984Z,100580.75
2018-10-06T10:13:20.347Z,100584.12
2018-10-06T10:14:27.523Z,100582.09
2018-10-06T10:15:31.706Z,100581.23
2018-10-06T10:16:35.876Z,100576.52
2018-10-06T10:17:40.114Z,100566.97
2018-10-06T10:18:44.115Z,100573.86
2018-10-06T10:19:48.136Z,100567.64
2018-10-06T10:20:52.271Z,100562.77
2018-10-06T10:21:56.372Z,100567.44
2018-10-06T10:23:00.694Z,100563.55
2018-10-06T10:24:04.710Z,100560.55
2018-10-06T10:25:08.837Z,100562.88
2018-10-06T10:26:12.952Z,100565.72
2018-10-06T10:27:17.111Z,100562.84
2018-10-06T10:28:21.696Z,100569.20
2018-10-06T10:29:25.816Z,100563.50
2018-10-06T10:30:29.991Z,100567.67
2018-10-06T10:31:34.156Z,100560.46
2018-10-06T10:32:38.502Z,100566.31
2018-10-06T10:33:43.122Z,100566.47
2018-10-06T10:34:47.355Z,100560.89
2018-10-06T10:35:51.476Z,100559.73
2018-10-06T10:36:55.572Z,100569.58
2018-10-06T10:37:59.738Z,100560.02
2018-10-06T10:39:05.070Z,100562.85
2018-10-06T10:40:09.232Z,100558.97
2018-10-06T10:41:13.390Z,100562.13
2018-10-06T10:42:17.483Z,100557.44
2018-10-06T10:43:21.851Z,100558.59
2018-10-06T10:44:26.070Z,100558.92
2018-10-06T10:45:30.410Z,100550.17
2018-10-06T10:46:34.520Z,100553.36
2018-10-06T10:47:38.686Z,100554.03
2018-10-06T10:48:42.830Z,100547.95
2018-10-06T10:49:47.063Z,100540.23
2018-10-06T10:50:51.308Z,100534.50
2018-10-06T10:51:55.388Z,100539.02
2018-10-06T10:52:59.521Z,100540.64
2018-10-06T10:54:03.663Z,100533.05
2018-10-06T10:55:07.872Z,100532.69
2018-10-06T10:56:12.037Z,100529.13
2018-10-06T10:57:16.206Z,100526.11
2018-10-06T10:58:20.344Z,100525.44
2018-10-06T10:59:24.777Z,100525.41
2018-10-06T11:00:28.840Z,100525.72
2018-10-06T11:01:32.897Z,100523.03
2018-10-06T11:02:37.149Z,100527.20
2018-10-06T11:03:41.366Z,100523.00
2018-10-06T11:04:45.745Z,100519.30
2018-10-06T11:05:49.773Z,100518.59
2018-10-06T11:06:53.994Z,100517.59
2018-10-06T11:07:58.048Z,100520.41
2018-10-06T11:09:02.169Z,100514.87
2018-10-06T11:10:06.621Z,100518.70
2018-10-06T11:11:10.789Z,100521.23
2018-10-06T11:12:14.903Z,100517.66
2018-10-06T11:13:19.016Z,100525.03
2018-10-06T11:14:23.116Z,100518.44
2018-10-06T11:15:27.288Z,100522.10
2018-10-06T11:16:31.564Z,100518.41
2018-10-06T11:17:35.834Z,100526.61
2018-10-06T11:18:39.898Z,100519.38
2018-10-06T11:19:44.145Z,100517.02
2018-10-06T11:20:48.231Z,100513.30
2018-10-06T11:21:52.333Z,100511.58
2018-10-06T11:22:56.628Z,100513.59
2018-10-06T11:24:00.903Z,100507.00
2018-10-06T11:25:05.114Z,100508.48
2018-10-06T11:26:09.219Z,100502.59
2018-10-06T11:27:13.410Z,100501.08
2018-10-06T11:28:24.341Z,100499.36
2018-10-06T11:29:28.573Z,100501.34
2018-10-06T11:30:32.655Z,100498.27
2018-10-06T11:31:36.913Z,100498.41
2018-10-06T11:32:41.059Z,100490.50
2018-10-06T11:33:45.500Z,100495.17
2018-10-06T11:34:49.607Z,100493.95
2018-10-06T11:35:53.866Z,100488.06
2018-10-06T11:36:58.002Z,100490.05
2018-10-06T11:38:02.150Z,100483.48
2018-10-06T11:39:07.906Z,100480.41
2018-10-06T11:42:41.266Z,100477.14
2018-10-06T11:43:45.342Z,100471.08
2018-10-06T11:44:49.455Z,100475.11
2018-10-06T11:45:53.693Z,100472.22
2018-10-06T11:46:57.853Z,100470.35
2018-10-06T11:48:02.028Z,100470.81
2018-10-06T11:49:06.202Z,100465.55
2018-10-06T11:50:10.467Z,100462.48
2018-10-06T11:51:14.591Z,100461.59
2018-10-06T11:52:18.675Z,100457.67
2018-10-06T11:53:22.886Z,100456.16
2018-10-06T11:54:26.908Z,100454.30
2018-10-06T11:55:30.969Z,100454.60
2018-10-06T11:56:34.967Z,100452.24
2018-10-06T11:57:39.124Z,100450.84
2018-10-06T11:58:43.213Z,100452.94
2018-10-06T11:59:47.403Z,100454.75
2018-10-06T12:00:51.695Z,100446.82
2018-10-06T12:01:55.975Z,100451.31
2018-10-06T12:03:00.125Z,100449.25
2018-10-06T12:04:04.337Z,100448.86
2018-10-06T12:05:08.446Z,100444.95
2018-10-06T12:06:12.567Z,100449.77
2018-10-06T12:07:16.705Z,100447.52
2018-10-06T12:08:20.817Z,100442.59
2018-10-06T12:09:25.038Z,100445.85
2018-10-06T12:10:35.715Z,100439.74
2018-10-06T12:11:40.728Z,100437.17
2018-10-06T12:12:44.834Z,100437.50
2018-10-06T12:13:49.002Z,100438.78
2018-10-06T12:14:53.179Z,100435.88
2018-10-06T12:15:57.378Z,100429.47